Time;durP1;ratioP1;P1;durP2;ratioP2;P2;SDS_P1;SDS_P2;PMS_P1;PMS_P2;Temp;Humidity;BMP_temperature;BMP_pressure;BME280_temperature;BME280_humidity;BME280_pressure;Samples;Min_cycle;Max_cycle;Signal;HPM_P1;HPM_P2
2022/12/12 00:00:08;;;;;;;31.13;15.05;;;;;;;;;;5076585;28;20087;-76
2022/12/12 00:02:37;;;;;;;30.70;14.90;;;;;;;;;;5076556;28;20381;-77
2022/12/12 00:05:04;;;;;;;31.17;14.70;;;;;;;;;;5076616;28;20036;-78
2022/12/12 00:07:30;;;;;;;28.25;13.75;;;;;;;;;;5077001;28;20021;-77
2022/12/12 00:09:55;;;;;;;29.83;13.70;;;;;;;;;;5041953;28;20384;-77
2022/12/12 00:12:22;;;;;;;29.75;14.18;;;;;;;;;;5038568;28;20045;-76
2022/12/12 00:14:47;;;;;;;32.38;15.23;;;;;;;;;;5055237;28;20451;-78
2022/12/12 00:17:13;;;;;;;35.33;14.95;;;;;;;;;;5056693;28;20051;-77
2022/12/12 00:19:38;;;;;;;37.47;15.50;;;;;;;;;;5055153;28;20075;-77
2022/12/12 00:22:04;;;;;;;34.33;15.80;;;;;;;;;;5056039;28;20025;-77
2022/12/12 00:24:29;;;;;;;41.40;18.30;;;;;;;;;;5056019;28;20025;-77
2022/12/12 00:26:54;;;;;;;48.50;18.75;;;;;;;;;;5054843;28;20043;-77
2022/12/12 00:29:21;;;;;;;54.05;19.65;;;;;;;;;;5056361;28;20428;-77
2022/12/12 00:31:46;;;;;;;42.97;16.95;;;;;;;;;;5056569;28;20028;-77
2022/12/12 00:34:13;;;;;;;35.33;16.65;;;;;;;;;;5055996;28;20405;-78
2022/12/12 00:36:39;;;;;;;37.95;16.38;;;;;;;;;;5056183;28;20025;-76
2022/12/12 00:39:04;;;;;;;36.63;16.40;;;;;;;;;;5055948;28;20541;-77
2022/12/12 00:41:30;;;;;;;37.53;16.42;;;;;;;;;;5055773;28;20021;-77
2022/12/12 00:43:55;;;;;;;37.08;16.45;;;;;;;;;;5055729;28;20021;-77
2022/12/12 00:46:22;;;;;;;37.78;17.52;;;;;;;;;;5054311;28;20524;-77
2022/12/12 00:48:48;;;;;;;39.67;16.98;;;;;;;;;;5054362;28;20082;-78
2022/12/12 00:51:17;;;;;;;47.67;19.60;;;;;;;;;;5054440;28;20115;-76
2022/12/12 00:53:42;;;;;;;39.45;18.17;;;;;;;;;;5070980;28;20021;-77
2022/12/12 00:56:07;;;;;;;34.33;16.85;;;;;;;;;;5070908;28;20111;-78
2022/12/12 00:58:33;;;;;;;40.47;17.85;;;;;;;;;;5054836;28;20033;-77
2022/12/12 01:01:05;;;;;;;36.72;16.83;;;;;;;;;;5054138;28;20028;-78
2022/12/12 01:03:34;;;;;;;39.80;17.63;;;;;;;;;;5054100;28;20033;-77
2022/12/12 01:06:00;;;;;;;35.80;16.45;;;;;;;;;;5054288;28;20029;-77
2022/12/12 01:08:25;;;;;;;34.88;16.95;;;;;;;;;;5054025;28;20053;-77
2022/12/12 01:10:51;;;;;;;34.25;16.13;;;;;;;;;;5037679;28;20034;-77
2022/12/12 01:13:16;;;;;;;33.85;16.15;;;;;;;;;;5068649;28;20170;-77
2022/12/12 01:15:41;;;;;;;35.33;16.85;;;;;;;;;;5057314;28;20086;-77
2022/12/12 01:18:07;;;;;;;37.25;15.68;;;;;;;;;;5057302;28;20024;-77
2022/12/12 01:20:33;;;;;;;36.47;15.75;;;;;;;;;;5075455;28;20093;-77
2022/12/12 01:22:58;;;;;;;36.72;16.58;;;;;;;;;;5057173;28;20400;-77
2022/12/12 01:25:24;;;;;;;35.25;17.05;;;;;;;;;;5056560;28;20040;-77
2022/12/12 01:27:49;;;;;;;34.45;15.88;;;;;;;;;;5057135;28;20103;-77
2022/12/12 01:30:17;;;;;;;33.08;15.68;;;;;;;;;;5040683;28;20036;-77
2022/12/12 01:32:43;;;;;;;42.97;17.20;;;;;;;;;;5057221;28;20059;-78
2022/12/12 01:35:08;;;;;;;35.67;16.95;;;;;;;;;;5056873;28;20056;-78
2022/12/12 01:37:34;;;;;;;39.03;18.23;;;;;;;;;;5074660;28;20435;-77
2022/12/12 01:40:00;;;;;;;40.03;18.40;;;;;;;;;;5057568;28;20377;-77
2022/12/12 01:42:26;;;;;;;45.38;19.17;;;;;;;;;;5040539;28;20028;-77
2022/12/12 01:44:52;;;;;;;44.70;18.73;;;;;;;;;;5040336;28;20037;-77
2022/12/12 01:47:19;;;;;;;37.10;17.98;;;;;;;;;;5074664;28;20036;-78
2022/12/12 01:49:50;;;;;;;44.03;18.52;;;;;;;;;;5056868;28;20040;-77
2022/12/12 01:52:20;;;;;;;38.17;17.40;;;;;;;;;;5090037;28;20024;-77
2022/12/12 01:54:47;;;;;;;38.70;17.70;;;;;;;;;;5040272;28;20032;-77
2022/12/12 01:57:16;;;;;;;35.53;16.25;;;;;;;;;;5040171;28;20061;-77
2022/12/12 01:59:42;;;;;;;34.88;15.27;;;;;;;;;;5023596;28;20365;-78
2022/12/12 02:02:07;;;;;;;30.83;14.80;;;;;;;;;;5056650;28;20059;-77
2022/12/12 02:04:33;;;;;;;35.47;15.68;;;;;;;;;;5074519;28;20025;-78
2022/12/12 02:06:58;;;;;;;29.67;14.93;;;;;;;;;;5039789;28;20029;-77
2022/12/12 02:09:24;;;;;;;30.55;14.40;;;;;;;;;;5074384;28;20028;-78
2022/12/12 02:11:51;;;;;;;35.35;15.35;;;;;;;;;;5056114;28;20033;-77
2022/12/12 02:14:32;;;;;;;38.55;16.67;;;;;;;;;;5072541;28;20039;-78
2022/12/12 02:17:33;;;;;;;32.75;15.93;;;;;;;;;;5041334;28;20071;-78
2022/12/12 02:20:24;;;;;;;31.27;14.82;;;;;;;;;;5056239;28;20029;-77
2022/12/12 02:23:34;;;;;;;31.63;15.23;;;;;;;;;;5074583;28;20080;-77
2022/12/12 02:26:08;;;;;;;30.98;15.15;;;;;;;;;;5043056;28;20043;-77
2022/12/12 02:28:44;;;;;;;36.70;15.60;;;;;;;;;;5074396;28;20077;-78
2022/12/12 02:31:23;;;;;;;32.85;14.15;;;;;;;;;;5074125;28;20032;-77
2022/12/12 02:34:04;;;;;;;34.75;15.43;;;;;;;;;;5073899;28;20016;-77
2022/12/12 02:36:47;;;;;;;35.85;15.68;;;;;;;;;;5074238;28;20040;-76
2022/12/12 02:39:24;;;;;;;44.72;16.85;;;;;;;;;;5040150;28;20020;-76
2022/12/12 02:41:55;;;;;;;47.55;18.33;;;;;;;;;;5057154;28;20381;-77
2022/12/12 02:44:25;;;;;;;;;;;;;;;;;;5041102;28;20361;-76
2022/12/12 02:47:03;;;;;;;45.58;17.50;;;;;;;;;;5091490;28;19953;-77
2022/12/12 02:49:58;;;;;;;46.95;17.00;;;;;;;;;;5047139;28;20035;-77
2022/12/12 02:52:23;;;;;;;38.10;16.33;;;;;;;;;;5056205;28;20105;-77
2022/12/12 02:54:49;;;;;;;48.72;17.98;;;;;;;;;;5039175;28;20449;-76
2022/12/12 02:57:22;;;;;;;45.95;16.92;;;;;;;;;;5055907;28;20119;-78
2022/12/12 02:59:59;;;;;;;34.85;15.48;;;;;;;;;;5089298;28;20074;-76
2022/12/12 03:07:45;;;;;;;36.92;18.65;;;;;;;;;;5074060;28;20033;-77
2022/12/12 03:09:26;;;;;;;39.08;16.67;;;;;;;;;;5073028;28;20074;-77
2022/12/12 03:12:06;;;;;;;35.70;17.52;;;;;;;;;;5055470;28;20050;-77
2022/12/12 03:14:46;;;;;;;36.30;16.30;;;;;;;;;;5055694;28;20025;-77
2022/12/12 03:17:34;;;;;;;32.03;14.95;;;;;;;;;;5073605;28;20028;-77
2022/12/12 03:20:09;;;;;;;34.83;15.60;;;;;;;;;;5038917;28;20115;-77
2022/12/12 03:22:54;;;;;;;34.25;15.50;;;;;;;;;;5057489;28;20410;-79
2022/12/12 03:25:51;;;;;;;31.73;15.18;;;;;;;;;;5041791;28;20120;-77
2022/12/12 03:28:32;;;;;;;35.20;15.35;;;;;;;;;;5057962;28;20098;-77
2022/12/12 03:30:59;;;;;;;36.60;17.42;;;;;;;;;;5088989;28;20024;-77
2022/12/12 03:33:45;;;;;;;37.40;17.48;;;;;;;;;;5088853;28;20433;-77
2022/12/12 03:36:19;;;;;;;35.22;16.83;;;;;;;;;;5073218;28;20031;-77
2022/12/12 03:38:56;;;;;;;37.72;14.98;;;;;;;;;;5055383;28;20024;-77
2022/12/12 03:41:23;;;;;;;33.97;14.63;;;;;;;;;;5089060;28;20021;-78
2022/12/12 03:43:53;;;;;;;31.77;15.23;;;;;;;;;;5055923;28;20078;-77
2022/12/12 03:46:22;;;;;;;31.88;15.18;;;;;;;;;;5039559;28;20024;-76
2022/12/12 03:49:03;;;;;;;32.10;14.82;;;;;;;;;;5038974;28;20043;-77
2022/12/12 03:51:29;;;;;;;32.03;15.00;;;;;;;;;;5042591;28;20028;-78
2022/12/12 03:54:07;;;;;;;32.50;15.55;;;;;;;;;;5058670;28;20028;-78
2022/12/12 03:56:42;;;;;;;31.70;15.45;;;;;;;;;;5058783;28;20024;-76
2022/12/12 03:59:13;;;;;;;32.33;16.10;;;;;;;;;;5043151;28;20041;-77
2022/12/12 04:01:41;;;;;;;38.50;17.88;;;;;;;;;;5042527;28;20434;-77
2022/12/12 04:04:12;;;;;;;40.95;17.58;;;;;;;;;;5076661;28;20135;-76
2022/12/12 04:06:58;;;;;;;35.38;16.65;;;;;;;;;;5026377;28;20032;-77
2022/12/12 04:15:20;;;;;;;43.65;21.00;;;;;;;;;;5061133;28;20705;-77
2022/12/12 04:17:59;;;;;;;42.22;19.08;;;;;;;;;;5076543;28;20028;-77
2022/12/12 04:23:29;;;;;;;35.83;15.52;;;;;;;;;;5076220;28;20105;-78
2022/12/12 04:29:02;;;;;;;29.05;13.93;;;;;;;;;;5060891;28;20078;-77
2022/12/12 04:31:28;;;;;;;32.15;15.50;;;;;;;;;;5058117;28;20111;-77
2022/12/12 04:33:55;;;;;;;31.05;14.52;;;;;;;;;;5041423;28;20075;-77
2022/12/12 04:36:21;;;;;;;30.38;14.70;;;;;;;;;;5041628;28;20086;-77
2022/12/12 04:38:46;;;;;;;28.05;14.38;;;;;;;;;;5076686;28;20032;-76
2022/12/12 04:41:11;;;;;;;31.42;15.13;;;;;;;;;;5041321;28;20458;-77
2022/12/12 04:43:38;;;;;;;32.17;15.70;;;;;;;;;;5058231;28;20170;-76
2022/12/12 04:46:06;;;;;;;32.55;16.40;;;;;;;;;;5041286;28;20040;-76
2022/12/12 04:48:42;;;;;;;34.00;15.93;;;;;;;;;;5024981;28;20369;-77
2022/12/12 04:51:08;;;;;;;31.13;15.48;;;;;;;;;;5041590;28;20040;-76
2022/12/12 04:53:37;;;;;;;30.45;15.15;;;;;;;;;;5075552;28;20035;-76
2022/12/12 04:56:06;;;;;;;28.60;14.90;;;;;;;;;;5057882;28;20068;-77
2022/12/12 04:58:31;;;;;;;31.83;14.95;;;;;;;;;;5041354;28;20038;-76
2022/12/12 05:01:06;;;;;;;31.73;15.63;;;;;;;;;;5040762;28;20131;-76
2022/12/12 05:03:53;;;;;;;29.70;15.18;;;;;;;;;;5057416;28;20028;-76
2022/12/12 05:06:28;;;;;;;29.63;14.50;;;;;;;;;;5057974;28;20186;-76
2022/12/12 05:08:53;;;;;;;29.60;14.75;;;;;;;;;;5074320;28;20028;-76
2022/12/12 05:11:20;;;;;;;32.47;16.38;;;;;;;;;;5057354;28;20031;-75
2022/12/12 05:13:46;;;;;;;33.80;15.40;;;;;;;;;;5041087;28;20047;-75
2022/12/12 05:16:23;;;;;;;29.23;14.77;;;;;;;;;;5075407;28;20033;-76
2022/12/12 05:18:49;;;;;;;31.00;14.80;;;;;;;;;;5058737;28;20032;-76
2022/12/12 05:21:14;;;;;;;29.40;14.57;;;;;;;;;;5075032;28;20419;-77
2022/12/12 05:23:40;;;;;;;27.77;13.30;;;;;;;;;;5057438;28;20314;-76
2022/12/12 05:26:15;;;;;;;29.02;13.40;;;;;;;;;;5058280;28;20471;-76
2022/12/12 05:28:41;;;;;;;30.77;13.60;;;;;;;;;;5040751;28;20363;-76
2022/12/12 05:31:06;;;;;;;28.60;14.38;;;;;;;;;;5056611;28;20068;-76
2022/12/12 05:33:32;;;;;;;24.98;13.60;;;;;;;;;;5073548;28;20033;-76
2022/12/12 05:35:58;;;;;;;31.80;13.77;;;;;;;;;;5057235;28;20037;-75
2022/12/12 05:38:24;;;;;;;30.00;14.65;;;;;;;;;;5040286;28;20451;-76
2022/12/12 05:40:49;;;;;;;25.65;13.20;;;;;;;;;;5056727;28;20036;-77
2022/12/12 05:43:18;;;;;;;33.30;14.73;;;;;;;;;;5056768;28;20032;-76
2022/12/12 05:45:47;;;;;;;31.95;15.20;;;;;;;;;;5074545;28;20056;-78
2022/12/12 05:48:16;;;;;;;29.40;15.00;;;;;;;;;;5074682;28;20028;-76
2022/12/12 05:50:45;;;;;;;28.92;14.80;;;;;;;;;;5085192;28;20472;-78
2022/12/12 05:53:11;;;;;;;33.05;15.13;;;;;;;;;;5055800;28;20044;-77
2022/12/12 05:55:36;;;;;;;31.38;17.52;;;;;;;;;;5065176;28;20036;-78
2022/12/12 05:58:02;;;;;;;28.65;14.60;;;;;;;;;;5055205;28;20040;-76
2022/12/12 06:00:35;;;;;;;29.80;14.50;;;;;;;;;;5070090;28;20035;-76
2022/12/12 06:03:02;;;;;;;32.88;14.57;;;;;;;;;;5065124;28;20028;-76
2022/12/12 06:05:28;;;;;;;39.38;17.85;;;;;;;;;;5030676;28;20041;-75
2022/12/12 06:07:53;;;;;;;39.88;20.20;;;;;;;;;;5048636;28;20033;-75
2022/12/12 06:10:19;;;;;;;33.80;16.92;;;;;;;;;;5068849;28;20063;-78
2022/12/12 06:12:44;;;;;;;44.85;24.02;;;;;;;;;;5063573;28;20057;-75
2022/12/12 06:15:10;;;;;;;60.25;33.20;;;;;;;;;;5051814;28;20239;-77
2022/12/12 06:17:37;;;;;;;64.15;36.13;;;;;;;;;;5052711;28;20465;-77
2022/12/12 06:20:07;;;;;;;80.72;45.80;;;;;;;;;;5051654;28;20478;-75
2022/12/12 06:22:34;;;;;;;98.75;55.15;;;;;;;;;;5034900;28;20036;-77
2022/12/12 06:25:00;;;;;;;112.05;60.60;;;;;;;;;;5068379;28;20032;-76
2022/12/12 06:27:25;;;;;;;53.95;30.23;;;;;;;;;;5046493;28;20496;-76
2022/12/12 06:29:51;;;;;;;41.60;21.35;;;;;;;;;;5070227;28;20059;-75
2022/12/12 06:32:16;;;;;;;33.70;16.77;;;;;;;;;;5067816;28;20028;-78
2022/12/12 06:34:42;;;;;;;39.20;17.67;;;;;;;;;;5072503;28;20036;-77
2022/12/12 06:37:07;;;;;;;37.75;17.10;;;;;;;;;;5053491;28;20036;-77
2022/12/12 06:39:33;;;;;;;39.60;18.55;;;;;;;;;;5072839;28;20445;-76
2022/12/12 06:41:58;;;;;;;40.35;18.42;;;;;;;;;;5071253;28;20032;-75
2022/12/12 06:44:24;;;;;;;38.08;17.92;;;;;;;;;;5072296;28;20041;-77
2022/12/12 06:46:52;;;;;;;40.97;18.83;;;;;;;;;;5045055;28;20036;-76
2022/12/12 06:49:30;;;;;;;38.03;17.90;;;;;;;;;;5037273;28;20453;-75
2022/12/12 06:51:56;;;;;;;42.53;19.95;;;;;;;;;;5065239;28;20219;-78
2022/12/12 06:54:30;;;;;;;41.55;18.55;;;;;;;;;;5066414;28;20436;-75
2022/12/12 06:57:00;;;;;;;44.63;20.25;;;;;;;;;;5067594;28;20036;-77
2022/12/12 06:59:27;;;;;;;46.25;20.67;;;;;;;;;;5068638;28;20025;-77
2022/12/12 07:01:55;;;;;;;41.63;20.20;;;;;;;;;;5047006;28;20037;-78
2022/12/12 07:04:20;;;;;;;38.38;20.67;;;;;;;;;;5069325;28;20133;-77
2022/12/12 07:06:46;;;;;;;45.55;22.85;;;;;;;;;;5070420;28;20087;-78
2022/12/12 07:09:11;;;;;;;52.95;27.20;;;;;;;;;;5062981;28;20024;-76
2022/12/12 07:11:43;;;;;;;46.13;22.50;;;;;;;;;;5052897;28;20131;-76
2022/12/12 07:14:09;;;;;;;38.70;18.70;;;;;;;;;;5068578;28;20064;-77
2022/12/12 07:16:34;;;;;;;37.33;18.48;;;;;;;;;;5068580;28;20109;-75
2022/12/12 07:19:01;;;;;;;39.70;19.48;;;;;;;;;;5069139;28;20029;-77
2022/12/12 07:21:26;;;;;;;40.42;18.90;;;;;;;;;;5046804;28;20033;-79
2022/12/12 07:23:52;;;;;;;42.33;19.02;;;;;;;;;;5060068;28;20035;-78
2022/12/12 07:26:19;;;;;;;36.03;16.70;;;;;;;;;;5070157;28;20040;-77
2022/12/12 07:28:44;;;;;;;37.55;17.05;;;;;;;;;;5075414;28;20157;-74
2022/12/12 07:31:12;;;;;;;33.97;16.67;;;;;;;;;;5070250;28;20546;-76
2022/12/12 07:33:38;;;;;;;33.78;16.10;;;;;;;;;;5073037;28;20031;-78
2022/12/12 07:36:04;;;;;;;27.95;14.25;;;;;;;;;;5050964;28;20461;-77
2022/12/12 07:38:30;;;;;;;28.58;14.93;;;;;;;;;;5049841;28;20036;-76
2022/12/12 07:40:55;;;;;;;28.42;13.93;;;;;;;;;;5071145;28;20027;-75
2022/12/12 07:43:21;;;;;;;23.30;11.95;;;;;;;;;;5053190;28;20127;-79
2022/12/12 07:45:47;;;;;;;32.40;17.38;;;;;;;;;;5052202;28;20071;-76
2022/12/12 07:48:12;;;;;;;29.27;14.18;;;;;;;;;;5072793;28;20024;-77
2022/12/12 07:50:47;;;;;;;32.58;17.42;;;;;;;;;;5070585;28;20025;-78
2022/12/12 07:53:16;;;;;;;25.65;15.00;;;;;;;;;;5042286;28;20032;-77
2022/12/12 07:55:41;;;;;;;24.10;12.20;;;;;;;;;;5070556;28;20044;-77
2022/12/12 07:58:07;;;;;;;20.90;10.82;;;;;;;;;;5070156;28;20025;-78
2022/12/12 08:00:32;;;;;;;19.25;10.90;;;;;;;;;;5053627;28;20111;-78
2022/12/12 08:02:58;;;;;;;18.52;9.98;;;;;;;;;;5073223;28;20039;-80
2022/12/12 08:05:23;;;;;;;17.10;9.73;;;;;;;;;;5072155;28;20450;-76
2022/12/12 08:07:49;;;;;;;22.60;11.30;;;;;;;;;;5073408;28;20373;-76
2022/12/12 08:10:14;;;;;;;24.67;12.05;;;;;;;;;;5071924;28;20476;-77
2022/12/12 08:12:40;;;;;;;23.83;11.18;;;;;;;;;;5050894;28;20135;-77
2022/12/12 08:15:06;;;;;;;21.08;10.43;;;;;;;;;;5053453;28;20032;-78
2022/12/12 08:17:31;;;;;;;18.35;10.13;;;;;;;;;;5055387;28;20032;-77
2022/12/12 08:19:57;;;;;;;20.10;10.65;;;;;;;;;;5055319;28;20035;-79
2022/12/12 08:22:22;;;;;;;21.05;11.68;;;;;;;;;;5055578;28;20153;-79
2022/12/12 08:24:48;;;;;;;18.42;10.95;;;;;;;;;;5070661;28;20124;-78
2022/12/12 08:27:14;;;;;;;20.65;11.10;;;;;;;;;;5048437;28;20025;-77
2022/12/12 08:29:39;;;;;;;38.17;19.77;;;;;;;;;;5070353;28;20475;-80
2022/12/12 08:32:05;;;;;;;23.60;11.90;;;;;;;;;;5071098;28;20071;-78
2022/12/12 08:34:30;;;;;;;24.45;12.05;;;;;;;;;;5052604;28;20067;-78
2022/12/12 08:36:56;;;;;;;26.95;11.98;;;;;;;;;;5049314;28;20426;-79
2022/12/12 08:39:21;;;;;;;38.22;16.27;;;;;;;;;;5042931;28;20024;-79
2022/12/12 08:41:47;;;;;;;23.05;12.20;;;;;;;;;;5068048;28;20017;-79
2022/12/12 08:44:13;;;;;;;28.10;13.48;;;;;;;;;;5066759;28;20031;-78
2022/12/12 08:46:40;;;;;;;26.90;13.02;;;;;;;;;;5051292;28;20032;-78
2022/12/12 08:49:09;;;;;;;26.80;13.82;;;;;;;;;;5051412;28;20052;-79
2022/12/12 08:51:38;;;;;;;24.63;12.43;;;;;;;;;;5054127;28;20056;-79
2022/12/12 08:54:04;;;;;;;25.20;13.18;;;;;;;;;;5055044;28;20055;-81
2022/12/12 08:56:30;;;;;;;23.73;12.07;;;;;;;;;;5035192;28;20029;-78
2022/12/12 08:59:00;;;;;;;31.38;15.95;;;;;;;;;;5053283;28;20040;-77
2022/12/12 09:01:35;;;;;;;;;;;;;;;;;;5047109;28;20036;-78
2022/12/12 09:04:22;;;;;;;26.67;12.38;;;;;;;;;;5048388;28;19926;-83
2022/12/12 09:06:48;;;;;;;25.73;14.02;;;;;;;;;;5042236;28;20044;-78
2022/12/12 09:09:14;;;;;;;26.63;13.25;;;;;;;;;;5030266;28;20029;-78
2022/12/12 09:11:49;;;;;;;38.08;15.18;;;;;;;;;;5048037;28;20067;-80
2022/12/12 09:14:16;;;;;;;24.40;12.85;;;;;;;;;;5052877;28;20035;-78
2022/12/12 09:16:45;;;;;;;27.35;14.38;;;;;;;;;;5037980;28;20035;-82
2022/12/12 09:19:10;;;;;;;20.35;12.73;;;;;;;;;;5073438;28;20020;-78
2022/12/12 09:21:36;;;;;;;23.90;13.80;;;;;;;;;;5050424;28;20039;-79
2022/12/12 09:24:01;;;;;;;37.88;23.00;;;;;;;;;;5063035;28;20140;-80
2022/12/12 09:26:27;;;;;;;27.15;15.57;;;;;;;;;;5057173;28;20090;-79
2022/12/12 09:28:52;;;;;;;16.85;9.85;;;;;;;;;;5051051;28;20028;-77
2022/12/12 09:31:18;;;;;;;20.40;10.85;;;;;;;;;;5052374;28;20025;-77
2022/12/12 09:33:43;;;;;;;24.58;12.23;;;;;;;;;;5053696;28;20119;-78
2022/12/12 09:36:10;;;;;;;21.92;11.63;;;;;;;;;;5050497;28;20143;-77
2022/12/12 09:38:36;;;;;;;25.60;12.60;;;;;;;;;;5053484;28;20036;-77
2022/12/12 09:41:03;;;;;;;39.15;15.00;;;;;;;;;;5071363;28;20032;-77
2022/12/12 09:44:07;;;;;;;23.85;12.43;;;;;;;;;;5061833;28;20040;-77
2022/12/12 09:46:47;;;;;;;18.27;10.82;;;;;;;;;;5086874;28;20024;-81
2022/12/12 09:49:26;;;;;;;19.00;11.45;;;;;;;;;;5039376;28;20036;-80
2022/12/12 09:51:52;;;;;;;21.25;11.70;;;;;;;;;;5073598;28;20343;-79
2022/12/12 09:54:20;;;;;;;21.38;11.98;;;;;;;;;;5037600;28;20131;-78
2022/12/12 09:57:02;;;;;;;21.50;10.57;;;;;;;;;;5049555;28;20833;-78
2022/12/12 09:59:36;;;;;;;18.58;11.05;;;;;;;;;;5055950;28;20619;-78
2022/12/12 10:02:11;;;;;;;19.92;11.82;;;;;;;;;;5048642;28;20127;-79
2022/12/12 10:04:42;;;;;;;21.25;11.38;;;;;;;;;;5047213;28;20063;-78
2022/12/12 10:07:10;;;;;;;22.77;12.73;;;;;;;;;;5046028;28;20040;-78
2022/12/12 10:09:53;;;;;;;32.83;18.60;;;;;;;;;;5062384;28;20103;-77
2022/12/12 10:12:18;;;;;;;20.70;11.70;;;;;;;;;;5027450;28;20144;-77
2022/12/12 10:14:47;;;;;;;23.13;12.18;;;;;;;;;;5035165;28;20075;-75
2022/12/12 10:17:41;;;;;;;15.02;7.85;;;;;;;;;;5067508;28;20048;-75
2022/12/12 10:20:15;;;;;;;22.45;9.82;;;;;;;;;;5048555;28;20020;-75
2022/12/12 10:22:53;;;;;;;22.40;11.68;;;;;;;;;;5052876;28;20066;-76
2022/12/12 10:25:24;;;;;;;20.40;12.30;;;;;;;;;;5069110;28;20035;-76
2022/12/12 10:27:54;;;;;;;20.02;11.57;;;;;;;;;;5053223;28;20081;-76
2022/12/12 10:30:19;;;;;;;22.67;11.82;;;;;;;;;;5027609;28;20056;-76
2022/12/12 10:33:25;;;;;;;19.40;11.23;;;;;;;;;;5070376;28;20534;-75
2022/12/12 10:35:56;;;;;;;22.67;10.65;;;;;;;;;;5036982;28;20116;-77
2022/12/12 10:38:28;;;;;;;;;;;;;;;;;;5039498;28;20028;-76
2022/12/12 10:41:05;;;;;;;20.13;9.40;;;;;;;;;;5052348;28;19912;-77
2022/12/12 10:43:37;;;;;;;18.55;10.02;;;;;;;;;;5034949;28;20108;-78
2022/12/12 10:46:26;;;;;;;24.17;9.73;;;;;;;;;;5011010;28;20040;-78
2022/12/12 10:48:51;;;;;;;48.13;24.35;;;;;;;;;;5077178;28;20040;-77
2022/12/12 11:00:28;;;;;;;23.20;11.98;;;;;;;;;;5262461;22;20620;-77
2022/12/12 11:02:57;;;;;;;25.83;12.60;;;;;;;;;;4986019;28;20065;-76
2022/12/12 11:05:44;;;;;;;24.50;12.57;;;;;;;;;;4994767;28;20034;-77
2022/12/12 11:08:21;;;;;;;28.75;14.88;;;;;;;;;;5006811;28;20393;-74
2022/12/12 11:11:19;;;;;;;26.55;13.70;;;;;;;;;;4991640;28;20058;-75
2022/12/12 11:13:48;;;;;;;22.35;11.93;;;;;;;;;;4989025;28;20042;-76
2022/12/12 11:25:35;;;;;;;28.25;14.57;;;;;;;;;;5770803;23;20149;-77
2022/12/12 11:31:42;;;;;;;22.63;12.05;;;;;;;;;;4971053;28;20085;-75
2022/12/12 11:34:11;;;;;;;24.80;13.60;;;;;;;;;;4973056;28;20039;-75
2022/12/12 11:36:39;;;;;;;25.17;12.55;;;;;;;;;;5019249;28;20048;-76
2022/12/12 11:39:21;;;;;;;26.13;13.00;;;;;;;;;;5051101;28;20242;-77
2022/12/12 11:42:12;;;;;;;28.85;14.38;;;;;;;;;;5050398;28;20144;-78
2022/12/12 11:44:38;;;;;;;29.80;14.93;;;;;;;;;;5052269;28;20131;-79
2022/12/12 11:47:22;;;;;;;29.77;15.10;;;;;;;;;;5019080;28;20425;-78
2022/12/12 11:49:56;;;;;;;31.67;13.88;;;;;;;;;;5060482;28;20029;-81
2022/12/12 11:52:27;;;;;;;28.38;13.63;;;;;;;;;;5052810;28;20021;-78
2022/12/12 11:54:53;;;;;;;30.30;14.35;;;;;;;;;;5050432;28;20040;-78
2022/12/12 11:57:37;;;;;;;26.35;13.30;;;;;;;;;;5033973;28;20037;-78
2022/12/12 12:00:21;;;;;;;29.98;14.13;;;;;;;;;;5052424;28;20028;-78
2022/12/12 12:02:52;;;;;;;23.40;11.85;;;;;;;;;;5054355;28;20035;-78
2022/12/12 12:05:36;;;;;;;27.35;15.88;;;;;;;;;;5057346;28;20033;-77
2022/12/12 12:08:11;;;;;;;22.95;12.30;;;;;;;;;;5068817;28;20025;-77
2022/12/12 12:11:04;;;;;;;29.80;12.80;;;;;;;;;;5069904;28;20039;-79
2022/12/12 12:13:32;;;;;;;44.30;16.92;;;;;;;;;;5055771;28;20045;-78
2022/12/12 12:16:40;;;;;;;63.95;24.08;;;;;;;;;;5055090;28;20036;-78
2022/12/12 12:19:35;;;;;;;65.63;26.58;;;;;;;;;;5002541;28;20424;-78
2022/12/12 12:22:28;;;;;;;70.18;25.40;;;;;;;;;;5047552;28;20158;-78
2022/12/12 12:25:07;;;;;;;42.35;19.60;;;;;;;;;;5052586;28;20419;-77
2022/12/12 12:28:10;;;;;;;64.88;24.20;;;;;;;;;;5034450;28;20041;-77
2022/12/12 12:31:00;;;;;;;45.58;19.27;;;;;;;;;;5052119;28;20149;-78
2022/12/12 12:33:40;;;;;;;48.40;18.75;;;;;;;;;;5047629;28;20033;-78
2022/12/12 12:36:06;;;;;;;;;;;;;;;;;;5052126;28;20071;-80
2022/12/12 12:39:15;;;;;;;41.80;17.05;;;;;;;;;;5034983;28;19956;-78
2022/12/12 12:41:59;;;;;;;48.28;19.67;;;;;;;;;;4997264;28;20122;-76
2022/12/12 12:44:42;;;;;;;38.28;16.17;;;;;;;;;;5051910;28;20032;-76
2022/12/12 12:47:17;;;;;;;36.55;16.52;;;;;;;;;;5051489;28;20041;-77
2022/12/12 12:49:56;;;;;;;36.88;18.25;;;;;;;;;;5051806;28;20056;-79
2022/12/12 12:52:35;;;;;;;31.58;14.38;;;;;;;;;;5034588;28;20039;-79
2022/12/12 12:55:01;;;;;;;27.58;12.13;;;;;;;;;;5033899;28;20086;-79
2022/12/12 12:57:35;;;;;;;23.88;12.80;;;;;;;;;;5017173;28;20025;-78
2022/12/12 13:00:14;;;;;;;22.30;10.75;;;;;;;;;;5037128;28;20037;-77
2022/12/12 13:02:53;;;;;;;23.65;10.48;;;;;;;;;;5037312;28;20349;-78
2022/12/12 13:05:41;;;;;;;21.75;11.35;;;;;;;;;;5038408;28;20052;-78
2022/12/12 13:08:29;;;;;;;23.48;12.25;;;;;;;;;;5053085;28;20037;-79
2022/12/12 13:11:10;;;;;;;24.30;11.65;;;;;;;;;;5054141;28;20449;-78
2022/12/12 13:13:39;;;;;;;18.35;8.90;;;;;;;;;;5038847;28;20090;-77
2022/12/12 13:16:10;;;;;;;20.45;10.82;;;;;;;;;;5054788;28;20048;-78
2022/12/12 13:18:36;;;;;;;34.90;18.33;;;;;;;;;;5055382;28;20043;-79
2022/12/12 13:21:13;;;;;;;20.50;10.70;;;;;;;;;;5023313;28;20037;-82
2022/12/12 13:24:00;;;;;;;16.60;9.35;;;;;;;;;;5039877;28;20476;-77
2022/12/12 13:26:37;;;;;;;14.85;7.80;;;;;;;;;;5055479;28;20366;-78
2022/12/12 13:29:31;;;;;;;18.42;9.82;;;;;;;;;;5055281;28;20060;-78
2022/12/12 13:32:11;;;;;;;23.27;11.15;;;;;;;;;;5053802;28;20027;-77
2022/12/12 13:34:39;;;;;;;25.10;12.23;;;;;;;;;;5054690;28;20029;-78
2022/12/12 13:37:04;;;;;;;19.85;10.48;;;;;;;;;;5054643;28;20187;-78
2022/12/12 13:39:31;;;;;;;23.17;11.85;;;;;;;;;;5003872;28;20116;-78
2022/12/12 13:42:01;;;;;;;26.58;10.93;;;;;;;;;;5037092;28;20033;-78
2022/12/12 13:44:35;;;;;;;19.10;10.30;;;;;;;;;;5053384;28;20025;-78
2022/12/12 13:47:08;;;;;;;22.50;11.90;;;;;;;;;;5036883;28;20027;-78
2022/12/12 13:49:59;;;;;;;26.73;13.52;;;;;;;;;;5037897;28;20036;-79
2022/12/12 13:52:29;;;;;;;22.90;12.18;;;;;;;;;;5037171;28;20186;-77
2022/12/12 13:55:10;;;;;;;21.08;10.68;;;;;;;;;;5052613;28;20090;-77
2022/12/12 13:57:36;;;;;;;24.98;11.27;;;;;;;;;;5054433;28;20055;-78
2022/12/12 14:00:06;;;;;;;23.40;10.60;;;;;;;;;;5054558;28;20420;-78
2022/12/12 14:02:31;;;;;;;;;;;;;;;;;;5053774;28;20039;-78
2022/12/12 14:05:13;;;;;;;31.15;16.55;;;;;;;;;;5054329;28;19932;-77
2022/12/12 14:07:47;;;;;;;27.77;13.75;;;;;;;;;;5036745;28;20025;-78
2022/12/12 14:11:22;;;;;;;39.47;18.88;;;;;;;;;;5036891;28;20029;-83
2022/12/12 14:14:20;;;;;;;45.63;22.42;;;;;;;;;;4957741;28;20038;-85
2022/12/12 14:16:53;;;;;;;35.72;18.13;;;;;;;;;;4956723;28;20043;-78
2022/12/12 14:19:27;;;;;;;30.20;16.08;;;;;;;;;;5032139;28;20029;-78
2022/12/12 14:21:52;;;;;;;30.73;14.93;;;;;;;;;;5053869;28;20079;-78
2022/12/12 14:24:33;;;;;;;34.35;15.23;;;;;;;;;;5035585;28;20025;-78
2022/12/12 14:27:05;;;;;;;27.55;12.80;;;;;;;;;;5053568;28;20080;-78
2022/12/12 14:29:31;;;;;;;26.45;13.40;;;;;;;;;;5036585;28;20124;-78
2022/12/12 14:32:03;;;;;;;28.73;13.57;;;;;;;;;;5036105;28;20111;-78
2022/12/12 14:34:48;;;;;;;30.67;16.85;;;;;;;;;;5053406;28;20051;-78
2022/12/12 14:37:36;;;;;;;28.88;14.63;;;;;;;;;;5038882;28;20120;-78
2022/12/12 14:40:07;;;;;;;29.98;15.35;;;;;;;;;;5054074;28;20052;-78
2022/12/12 14:42:48;;;;;;;33.13;15.32;;;;;;;;;;5052643;28;20029;-77
2022/12/12 14:45:39;;;;;;;31.63;15.55;;;;;;;;;;5053710;28;20028;-78
2022/12/12 14:48:11;;;;;;;26.15;12.20;;;;;;;;;;5038386;28;20029;-78
2022/12/12 14:50:37;;;;;;;27.48;12.75;;;;;;;;;;5036736;28;20389;-79
2022/12/12 14:53:02;;;;;;;27.88;12.88;;;;;;;;;;5019847;28;20048;-78
2022/12/12 14:55:28;;;;;;;33.83;15.40;;;;;;;;;;5036086;28;20028;-78
2022/12/12 14:57:53;;;;;;;35.83;19.20;;;;;;;;;;5019494;28;20045;-78
2022/12/12 15:00:19;;;;;;;151.70;63.70;;;;;;;;;;5035785;28;20166;-78
2022/12/12 15:02:49;;;;;;;39.90;20.65;;;;;;;;;;5020059;28;20025;-78
2022/12/12 15:05:15;;;;;;;36.72;17.70;;;;;;;;;;5036232;28;20033;-78
2022/12/12 15:07:40;;;;;;;41.30;20.60;;;;;;;;;;5035391;28;20040;-79
2022/12/12 15:10:26;;;;;;;34.42;19.73;;;;;;;;;;5035906;28;20047;-79
2022/12/12 15:12:51;;;;;;;32.03;16.70;;;;;;;;;;5035814;28;20102;-78
2022/12/12 15:15:25;;;;;;;38.30;18.23;;;;;;;;;;5019364;28;20094;-78
2022/12/12 15:17:51;;;;;;;37.38;18.63;;;;;;;;;;5031794;28;20116;-77
2022/12/12 15:20:19;;;;;;;45.33;21.67;;;;;;;;;;5016299;28;20533;-78
2022/12/12 15:22:54;;;;;;;46.88;21.02;;;;;;;;;;5032379;28;20036;-78